Time;durP1;ratioP1;P1;durP2;ratioP2;P2;SDS_P1;SDS_P2;PMS_P1;PMS_P2;Temp;Humidity;BMP_temperature;BMP_pressure;BME280_temperature;BME280_humidity;BME280_pressure;Samples;Min_cycle;Max_cycle;Signal;HPM_P1;HPM_P2
2023/12/03 00:02:18;;;;;;;37.53;15.63;;;;;;;;;;4969218;28;20019;-92
2023/12/03 00:04:43;;;;;;;39.47;16.20;;;;;;;;;;4965670;28;20288;-94
2023/12/03 00:07:08;;;;;;;38.40;16.02;;;;;;;;;;4938413;29;20023;-92
2023/12/03 00:09:36;;;;;;;38.20;16.50;;;;;;;;;;4957663;29;20027;-93
2023/12/03 00:12:02;;;;;;;41.30;16.77;;;;;;;;;;4938666;29;20023;-92
2023/12/03 00:14:27;;;;;;;38.90;16.60;;;;;;;;;;4934897;29;20087;-91
2023/12/03 00:16:52;;;;;;;38.63;17.10;;;;;;;;;;4941583;29;20023;-91
2023/12/03 00:19:17;;;;;;;38.27;15.87;;;;;;;;;;4946124;28;20035;-92
2023/12/03 00:21:43;;;;;;;36.53;14.97;;;;;;;;;;4936606;29;20016;-92
2023/12/03 00:24:08;;;;;;;35.20;14.60;;;;;;;;;;4938552;29;20026;-91
2023/12/03 00:26:33;;;;;;;38.87;15.43;;;;;;;;;;4945497;29;20513;-91
2023/12/03 00:28:58;;;;;;;43.17;16.73;;;;;;;;;;4943291;28;20409;-91
2023/12/03 00:31:23;;;;;;;38.63;15.10;;;;;;;;;;4924664;29;20043;-92
2023/12/03 00:33:49;;;;;;;41.17;15.83;;;;;;;;;;4956721;29;20050;-91
2023/12/03 00:36:14;;;;;;;32.67;14.20;;;;;;;;;;4953262;29;20034;-92
2023/12/03 00:38:39;;;;;;;38.17;15.60;;;;;;;;;;4937888;29;20031;-91
2023/12/03 00:41:04;;;;;;;35.17;14.83;;;;;;;;;;4941460;29;20106;-91
2023/12/03 00:43:29;;;;;;;37.83;15.77;;;;;;;;;;4948190;29;20039;-92
2023/12/03 00:45:57;;;;;;;38.10;15.93;;;;;;;;;;4919458;29;20102;-92
2023/12/03 00:48:22;;;;;;;30.60;14.32;;;;;;;;;;4947864;28;20030;-92
2023/12/03 00:50:48;;;;;;;34.80;15.03;;;;;;;;;;4945631;29;20391;-92
2023/12/03 00:53:14;;;;;;;31.92;15.07;;;;;;;;;;4936344;29;20388;-92
2023/12/03 00:55:39;;;;;;;33.30;13.80;;;;;;;;;;4917895;29;20032;-92
2023/12/03 00:58:04;;;;;;;30.37;14.17;;;;;;;;;;4948276;28;20040;-92
2023/12/03 01:00:29;;;;;;;30.37;13.53;;;;;;;;;;4943853;29;20111;-92
2023/12/03 01:02:55;;;;;;;28.50;13.60;;;;;;;;;;4952765;29;20039;-91
2023/12/03 01:05:20;;;;;;;35.20;15.90;;;;;;;;;;4943339;28;20028;-92
2023/12/03 01:07:45;;;;;;;36.20;15.37;;;;;;;;;;4942387;28;20023;-92
2023/12/03 01:10:10;;;;;;;36.57;16.83;;;;;;;;;;4938081;29;20491;-92
2023/12/03 01:12:35;;;;;;;38.10;16.83;;;;;;;;;;4943188;29;20047;-91
2023/12/03 01:15:01;;;;;;;40.07;18.20;;;;;;;;;;4953532;29;20102;-92
2023/12/03 01:17:26;;;;;;;38.47;16.37;;;;;;;;;;4936140;28;20506;-93
2023/12/03 01:19:52;;;;;;;37.43;16.80;;;;;;;;;;4933294;29;20502;-91
2023/12/03 01:22:18;;;;;;;33.60;16.45;;;;;;;;;;4934381;29;20015;-92
2023/12/03 01:24:43;;;;;;;36.27;16.13;;;;;;;;;;4934005;29;20099;-91
2023/12/03 01:27:08;;;;;;;39.03;16.43;;;;;;;;;;4934617;29;20030;-92
2023/12/03 01:29:33;;;;;;;36.37;15.87;;;;;;;;;;4933390;29;20487;-93
2023/12/03 01:31:58;;;;;;;38.97;17.80;;;;;;;;;;4933487;29;20024;-92
2023/12/03 01:34:24;;;;;;;37.13;16.20;;;;;;;;;;4932570;29;20376;-93
2023/12/03 01:36:49;;;;;;;36.23;17.83;;;;;;;;;;4932667;29;20062;-91
2023/12/03 01:39:14;;;;;;;35.13;16.90;;;;;;;;;;4933661;29;20465;-93
2023/12/03 01:41:39;;;;;;;37.47;17.00;;;;;;;;;;4933785;29;20024;-92
2023/12/03 01:44:05;;;;;;;38.87;17.27;;;;;;;;;;4933951;29;20263;-92
2023/12/03 01:46:30;;;;;;;38.27;16.43;;;;;;;;;;4928825;29;20037;-92
2023/12/03 01:48:55;;;;;;;36.73;16.23;;;;;;;;;;4949970;28;20130;-92
2023/12/03 01:51:20;;;;;;;35.10;15.70;;;;;;;;;;4944465;29;20029;-92
2023/12/03 01:53:46;;;;;;;34.17;15.83;;;;;;;;;;4952916;29;20498;-92
2023/12/03 01:56:12;;;;;;;37.70;16.63;;;;;;;;;;4935145;29;20456;-92
2023/12/03 01:58:37;;;;;;;36.78;16.85;;;;;;;;;;4932201;29;20043;-91
2023/12/03 02:01:03;;;;;;;36.87;17.37;;;;;;;;;;4932372;29;20024;-91
2023/12/03 02:03:28;;;;;;;40.53;16.83;;;;;;;;;;4941605;29;20032;-92
2023/12/03 02:06:04;;;;;;;44.07;17.77;;;;;;;;;;4932348;29;20272;-92
2023/12/03 02:08:29;;;;;;;40.53;16.90;;;;;;;;;;4934655;29;20399;-91
2023/12/03 02:10:54;;;;;;;42.27;18.13;;;;;;;;;;4944262;29;20284;-91
2023/12/03 02:13:20;;;;;;;47.60;18.93;;;;;;;;;;4942050;29;20032;-91
2023/12/03 02:15:45;;;;;;;55.40;21.00;;;;;;;;;;4950445;29;20054;-91
2023/12/03 02:18:10;;;;;;;46.93;20.43;;;;;;;;;;4957190;28;20058;-91
2023/12/03 02:20:36;;;;;;;54.67;21.87;;;;;;;;;;4958544;29;20031;-91
2023/12/03 02:23:01;;;;;;;49.20;19.73;;;;;;;;;;4954221;29;20023;-92
2023/12/03 02:25:26;;;;;;;43.67;19.90;;;;;;;;;;4962696;28;20286;-91
2023/12/03 02:27:52;;;;;;;51.07;19.83;;;;;;;;;;4973687;28;20019;-91
2023/12/03 02:30:17;;;;;;;45.93;19.60;;;;;;;;;;4969444;29;20019;-90
2023/12/03 02:32:42;;;;;;;47.93;20.27;;;;;;;;;;4948084;29;20510;-92
2023/12/03 02:35:07;;;;;;;40.90;17.13;;;;;;;;;;4940132;29;20103;-91
2023/12/03 02:37:34;;;;;;;41.42;18.52;;;;;;;;;;4938570;29;20032;-92
2023/12/03 02:39:59;;;;;;;40.23;17.17;;;;;;;;;;4939138;29;20049;-93
2023/12/03 02:42:24;;;;;;;40.60;17.00;;;;;;;;;;4943120;29;20027;-93
2023/12/03 02:44:49;;;;;;;39.10;16.80;;;;;;;;;;4941171;29;20055;-94
2023/12/03 02:47:19;;;;;;;38.67;16.87;;;;;;;;;;4938471;29;20115;-95
2023/12/03 02:49:45;;;;;;;41.50;17.95;;;;;;;;;;4938400;29;20102;-89
2023/12/03 02:52:10;;;;;;;37.77;16.77;;;;;;;;;;4938669;29;20115;-90
2023/12/03 02:54:37;;;;;;;43.28;17.45;;;;;;;;;;4935781;29;20440;-90
2023/12/03 02:57:05;;;;;;;44.60;17.57;;;;;;;;;;4947232;28;20050;-91
2023/12/03 02:59:30;;;;;;;38.97;16.40;;;;;;;;;;4947586;28;20039;-89
2023/12/03 03:01:55;;;;;;;36.43;16.60;;;;;;;;;;4931956;29;20426;-91
2023/12/03 03:04:20;;;;;;;40.57;17.10;;;;;;;;;;4935031;29;20110;-91
2023/12/03 03:06:45;;;;;;;42.53;17.33;;;;;;;;;;4935634;29;20056;-90
2023/12/03 03:09:11;;;;;;;44.77;17.30;;;;;;;;;;4936778;29;20026;-90
2023/12/03 03:11:36;;;;;;;42.07;17.00;;;;;;;;;;4921855;29;20036;-91
2023/12/03 03:14:01;;;;;;;38.90;16.97;;;;;;;;;;4925590;29;20050;-90
2023/12/03 03:16:27;;;;;;;37.40;15.73;;;;;;;;;;4957765;29;20027;-91
2023/12/03 03:18:54;;;;;;;40.03;17.13;;;;;;;;;;4943497;29;20023;-91
2023/12/03 03:21:19;;;;;;;39.00;17.17;;;;;;;;;;4945380;29;20034;-91
2023/12/03 03:23:44;;;;;;;37.53;16.60;;;;;;;;;;4937984;29;20094;-91
2023/12/03 03:26:09;;;;;;;46.33;18.43;;;;;;;;;;4945505;29;20090;-91
2023/12/03 03:28:35;;;;;;;37.53;16.70;;;;;;;;;;4955063;28;20027;-91
2023/12/03 03:31:01;;;;;;;43.17;16.73;;;;;;;;;;4937383;29;20026;-91
2023/12/03 03:33:26;;;;;;;41.58;17.67;;;;;;;;;;4936738;29;20031;-90
2023/12/03 03:35:51;;;;;;;40.17;16.30;;;;;;;;;;4936075;29;20494;-91
2023/12/03 03:38:18;;;;;;;41.93;17.87;;;;;;;;;;5086954;23;20513;-91
2023/12/03 03:40:43;;;;;;;45.22;16.83;;;;;;;;;;4951936;28;20558;-91
2023/12/03 03:43:08;;;;;;;39.80;17.07;;;;;;;;;;4949708;28;20114;-89
2023/12/03 03:45:34;;;;;;;36.77;15.70;;;;;;;;;;4927955;29;20093;-91
2023/12/03 03:47:59;;;;;;;39.87;16.37;;;;;;;;;;4953468;28;20083;-90
2023/12/03 03:50:24;;;;;;;48.13;18.20;;;;;;;;;;4935836;29;20200;-89
2023/12/03 03:52:49;;;;;;;38.40;15.43;;;;;;;;;;4952243;29;20058;-89
2023/12/03 03:55:15;;;;;;;35.07;15.03;;;;;;;;;;4954504;29;20110;-89
2023/12/03 03:57:40;;;;;;;41.67;16.23;;;;;;;;;;4954609;29;20031;-91
2023/12/03 04:00:05;;;;;;;44.07;16.27;;;;;;;;;;4948494;28;20409;-90
2023/12/03 04:02:31;;;;;;;43.97;17.17;;;;;;;;;;4938502;29;20038;-91
2023/12/03 04:04:57;;;;;;;46.05;17.25;;;;;;;;;;4955893;28;20487;-89
2023/12/03 04:07:22;;;;;;;47.60;16.13;;;;;;;;;;4956683;28;20030;-93
2023/12/03 04:09:47;;;;;;;39.67;15.87;;;;;;;;;;4940701;29;20102;-92
2023/12/03 04:12:12;;;;;;;44.40;17.10;;;;;;;;;;4937680;29;20023;-92
2023/12/03 04:14:39;;;;;;;43.83;17.23;;;;;;;;;;4938562;29;20539;-93
2023/12/03 04:17:04;;;;;;;49.85;19.02;;;;;;;;;;4964561;28;20039;-92
2023/12/03 04:19:29;;;;;;;45.73;17.33;;;;;;;;;;4976018;28;20023;-93
2023/12/03 04:21:54;;;;;;;46.43;16.23;;;;;;;;;;4978848;28;20015;-96
2023/12/03 04:24:19;;;;;;;43.87;17.63;;;;;;;;;;4978504;28;20019;-93
2023/12/03 04:26:46;;;;;;;44.33;17.10;;;;;;;;;;4978969;28;20043;-92
2023/12/03 04:29:11;;;;;;;53.08;18.58;;;;;;;;;;4975193;28;20140;-95
2023/12/03 04:31:37;;;;;;;41.90;16.57;;;;;;;;;;4957754;28;20498;-92
2023/12/03 04:34:02;;;;;;;45.50;17.63;;;;;;;;;;4969171;29;20039;-93
2023/12/03 04:36:27;;;;;;;51.20;19.00;;;;;;;;;;4962215;29;20470;-93
2023/12/03 04:38:53;;;;;;;48.23;18.27;;;;;;;;;;4965982;29;20027;-93
2023/12/03 04:41:18;;;;;;;52.72;18.20;;;;;;;;;;4963398;28;20059;-94
2023/12/03 04:43:47;;;;;;;53.03;20.60;;;;;;;;;;4973285;28;20071;-92
2023/12/03 04:46:12;;;;;;;53.25;18.88;;;;;;;;;;4976004;28;20027;-93
2023/12/03 04:54:47;;;;;;;55.43;18.57;;;;;;;;;;4954783;29;20290;-93
2023/12/03 04:57:12;;;;;;;57.67;21.40;;;;;;;;;;4940599;28;20028;-92
2023/12/03 04:59:38;;;;;;;59.10;21.73;;;;;;;;;;4937998;28;20030;-93
2023/12/03 05:02:03;;;;;;;53.67;20.80;;;;;;;;;;4967435;28;20018;-93
2023/12/03 05:04:29;;;;;;;60.83;21.70;;;;;;;;;;4959644;28;20270;-93
2023/12/03 05:06:54;;;;;;;63.13;20.93;;;;;;;;;;4958957;28;20022;-93
2023/12/03 05:09:23;;;;;;;57.73;20.60;;;;;;;;;;4957255;28;20047;-94
2023/12/03 05:11:49;;;;;;;54.13;20.40;;;;;;;;;;4940644;29;20111;-93
2023/12/03 05:14:14;;;;;;;56.58;19.77;;;;;;;;;;4922591;29;20016;-93
2023/12/03 05:16:40;;;;;;;64.70;20.57;;;;;;;;;;4937590;29;20042;-92
2023/12/03 05:19:06;;;;;;;66.05;22.70;;;;;;;;;;4932792;29;20024;-93
2023/12/03 05:21:31;;;;;;;74.60;28.23;;;;;;;;;;4919438;29;20595;-93
2023/12/03 05:23:58;;;;;;;71.83;24.20;;;;;;;;;;4934414;29;20024;-92
2023/12/03 05:26:24;;;;;;;60.03;21.05;;;;;;;;;;4918955;29;20020;-93
2023/12/03 05:28:49;;;;;;;64.37;20.97;;;;;;;;;;4919581;29;20020;-94
2023/12/03 05:31:14;;;;;;;61.28;21.58;;;;;;;;;;4939238;29;20038;-93
2023/12/03 05:33:40;;;;;;;66.07;20.33;;;;;;;;;;4936684;29;20546;-92
2023/12/03 05:36:06;;;;;;;61.03;19.87;;;;;;;;;;4930985;29;20435;-92
2023/12/03 05:38:31;;;;;;;63.50;21.47;;;;;;;;;;4927297;29;20311;-90
2023/12/03 05:40:56;;;;;;;57.33;19.47;;;;;;;;;;4935128;29;20024;-91
2023/12/03 05:43:21;;;;;;;59.53;19.50;;;;;;;;;;4927810;29;20504;-90
2023/12/03 05:45:47;;;;;;;59.73;19.83;;;;;;;;;;4934420;29;20088;-92
2023/12/03 05:48:12;;;;;;;62.30;19.50;;;;;;;;;;4935795;29;20023;-91
2023/12/03 05:50:38;;;;;;;56.80;19.67;;;;;;;;;;4932869;29;20468;-93
2023/12/03 05:53:03;;;;;;;57.70;18.48;;;;;;;;;;4935305;29;20085;-91
2023/12/03 05:55:28;;;;;;;59.97;19.60;;;;;;;;;;4937707;29;20588;-95
2023/12/03 05:57:54;;;;;;;66.37;21.30;;;;;;;;;;4944363;29;20050;-96
2023/12/03 06:00:20;;;;;;;65.50;22.10;;;;;;;;;;4942915;29;20043;-94
2023/12/03 06:02:47;;;;;;;65.85;20.85;;;;;;;;;;4939194;29;20024;-91
2023/12/03 06:05:12;;;;;;;59.10;18.98;;;;;;;;;;4938873;29;20039;-92
2023/12/03 06:07:37;;;;;;;65.97;20.73;;;;;;;;;;4951497;28;20149;-91
2023/12/03 06:10:03;;;;;;;62.47;19.87;;;;;;;;;;4943560;29;20530;-91
2023/12/03 06:12:28;;;;;;;56.53;18.80;;;;;;;;;;4932176;29;20028;-91
2023/12/03 06:14:54;;;;;;;67.93;20.23;;;;;;;;;;4921102;29;20031;-88
2023/12/03 06:17:19;;;;;;;73.57;25.33;;;;;;;;;;4935603;29;20036;-89
2023/12/03 06:19:46;;;;;;;55.70;18.43;;;;;;;;;;4936322;29;20019;-90
2023/12/03 06:22:11;;;;;;;55.95;18.60;;;;;;;;;;4935254;29;20102;-89
2023/12/03 06:24:36;;;;;;;56.90;19.70;;;;;;;;;;4936061;29;20110;-90
2023/12/03 06:27:01;;;;;;;54.47;18.63;;;;;;;;;;4936681;29;20031;-90
2023/12/03 06:29:26;;;;;;;58.43;19.70;;;;;;;;;;4944259;29;20023;-92
2023/12/03 06:31:52;;;;;;;54.07;17.50;;;;;;;;;;4952194;29;20024;-91
2023/12/03 06:34:17;;;;;;;57.00;18.03;;;;;;;;;;4924692;29;20054;-92
2023/12/03 06:36:44;;;;;;;49.95;17.45;;;;;;;;;;4932523;29;20050;-91
2023/12/03 06:39:10;;;;;;;56.10;17.83;;;;;;;;;;4932773;29;20028;-92
2023/12/03 06:41:36;;;;;;;63.50;19.87;;;;;;;;;;4902484;29;20051;-92
2023/12/03 06:44:01;;;;;;;65.65;21.45;;;;;;;;;;4934624;29;20058;-91
2023/12/03 06:46:26;;;;;;;56.67;18.90;;;;;;;;;;4936354;29;20415;-92
2023/12/03 06:48:51;;;;;;;67.33;19.60;;;;;;;;;;4919550;29;20020;-90
2023/12/03 06:51:18;;;;;;;63.17;19.70;;;;;;;;;;4928456;29;20507;-91
2023/12/03 06:53:43;;;;;;;59.75;19.40;;;;;;;;;;4917770;29;20028;-91
2023/12/03 06:56:10;;;;;;;58.20;19.47;;;;;;;;;;4934867;29;20083;-92
2023/12/03 06:58:35;;;;;;;57.33;17.38;;;;;;;;;;4936136;29;20051;-90
2023/12/03 07:01:00;;;;;;;57.33;17.70;;;;;;;;;;4932486;29;20543;-91
2023/12/03 07:03:25;;;;;;;48.77;17.27;;;;;;;;;;4936838;29;20027;-91
2023/12/03 07:05:51;;;;;;;53.23;16.77;;;;;;;;;;4933552;28;20042;-92
2023/12/03 07:08:16;;;;;;;45.30;16.80;;;;;;;;;;4935911;29;20224;-92
2023/12/03 07:10:41;;;;;;;52.63;18.43;;;;;;;;;;4917578;29;20363;-92
2023/12/03 07:13:07;;;;;;;50.50;17.43;;;;;;;;;;4936456;29;20023;-91
2023/12/03 07:15:32;;;;;;;51.33;16.20;;;;;;;;;;4935567;29;20094;-91
2023/12/03 07:17:57;;;;;;;50.53;17.10;;;;;;;;;;4936176;29;20031;-91
2023/12/03 07:20:23;;;;;;;49.47;16.00;;;;;;;;;;4935821;29;20099;-90
2023/12/03 07:22:48;;;;;;;48.60;15.30;;;;;;;;;;4919473;29;20382;-88
2023/12/03 07:25:13;;;;;;;55.20;17.77;;;;;;;;;;4940279;29;20011;-88
2023/12/03 07:27:38;;;;;;;50.03;15.87;;;;;;;;;;4940242;29;20027;-88
2023/12/03 07:30:04;;;;;;;48.03;16.90;;;;;;;;;;4940067;29;20024;-87
2023/12/03 07:32:29;;;;;;;51.67;17.67;;;;;;;;;;4938622;29;20391;-87
2023/12/03 07:34:54;;;;;;;55.07;16.70;;;;;;;;;;4922618;29;20542;-87
2023/12/03 07:37:20;;;;;;;45.90;16.30;;;;;;;;;;4919331;29;20031;-90
2023/12/03 07:39:46;;;;;;;54.63;19.30;;;;;;;;;;4928837;29;20024;-89
2023/12/03 07:42:11;;;;;;;52.25;18.30;;;;;;;;;;4916238;23;20142;-89
2023/12/03 07:44:37;;;;;;;64.43;20.60;;;;;;;;;;4935029;29;20063;-90
2023/12/03 07:47:02;;;;;;;50.90;18.30;;;;;;;;;;4930248;29;20019;-88
2023/12/03 07:49:28;;;;;;;60.53;19.40;;;;;;;;;;4933400;29;20035;-87
2023/12/03 07:51:54;;;;;;;55.92;19.48;;;;;;;;;;4932687;29;20028;-87
2023/12/03 07:54:19;;;;;;;50.57;15.73;;;;;;;;;;4933750;29;20034;-88
2023/12/03 07:56:44;;;;;;;57.33;18.17;;;;;;;;;;4934364;29;20031;-86
2023/12/03 07:59:11;;;;;;;50.50;18.70;;;;;;;;;;4934150;29;20751;-85
2023/12/03 08:01:36;;;;;;;48.83;16.60;;;;;;;;;;4930137;29;20024;-84
2023/12/03 08:04:04;;;;;;;59.20;19.80;;;;;;;;;;4932249;29;20288;-85
2023/12/03 08:09:05;;;;;;;54.65;16.92;;;;;;;;;;4957378;23;20051;-87
2023/12/03 08:11:48;;;;;;;50.28;17.63;;;;;;;;;;4923393;29;20383;-86
2023/12/03 08:14:14;;;;;;;50.23;16.43;;;;;;;;;;4947595;29;20146;-88
2023/12/03 08:16:39;;;;;;;50.05;16.33;;;;;;;;;;4923618;29;20496;-87
2023/12/03 08:19:04;;;;;;;54.10;18.23;;;;;;;;;;4950312;29;20484;-86
2023/12/03 08:21:36;;;;;;;62.93;21.90;;;;;;;;;;4946257;29;20151;-86
2023/12/03 08:24:01;;;;;;;55.75;17.23;;;;;;;;;;4925815;29;20410;-86
2023/12/03 08:26:27;;;;;;;54.93;18.30;;;;;;;;;;4935762;29;20015;-86
2023/12/03 08:28:52;;;;;;;52.17;16.27;;;;;;;;;;4935989;29;20367;-87
2023/12/03 08:31:17;;;;;;;50.73;18.67;;;;;;;;;;4951781;29;20054;-88
2023/12/03 08:33:42;;;;;;;55.50;21.23;;;;;;;;;;4938539;29;20027;-87
2023/12/03 08:36:08;;;;;;;47.77;16.53;;;;;;;;;;4929764;29;20027;-88
2023/12/03 09:11:06;;;;;;;39.83;13.00;;;;;;;;;;5142539;27;20443;-86
2023/12/03 09:13:35;;;;;;;33.47;12.73;;;;;;;;;;5119971;27;20020;-85
2023/12/03 09:16:00;;;;;;;34.42;12.73;;;;;;;;;;5125052;28;20023;-86
2023/12/03 09:18:26;;;;;;;38.67;15.63;;;;;;;;;;5127104;28;20027;-85
2023/12/03 09:20:51;;;;;;;34.47;13.57;;;;;;;;;;5123724;28;20055;-86
2023/12/03 09:23:17;;;;;;;32.63;13.15;;;;;;;;;;5123986;27;20486;-86
2023/12/03 09:25:42;;;;;;;37.97;14.10;;;;;;;;;;5125380;27;20023;-85
2023/12/03 09:28:08;;;;;;;37.57;14.67;;;;;;;;;;5119745;27;20012;-86
2023/12/03 09:30:33;;;;;;;39.92;14.32;;;;;;;;;;5109558;28;20046;-86
2023/12/03 09:32:58;;;;;;;34.37;12.80;;;;;;;;;;5110151;27;20160;-86
2023/12/03 09:35:24;;;;;;;33.33;12.90;;;;;;;;;;5123028;28;20098;-86
2023/12/03 09:37:49;;;;;;;38.23;13.90;;;;;;;;;;5119464;28;20072;-86
2023/12/03 09:40:15;;;;;;;33.03;12.80;;;;;;;;;;5107398;28;20035;-86
2023/12/03 09:42:43;;;;;;;33.63;12.90;;;;;;;;;;5123859;28;20458;-86
2023/12/03 09:45:09;;;;;;;32.97;14.00;;;;;;;;;;5127917;27;20481;-88
2023/12/03 09:47:35;;;;;;;31.90;11.87;;;;;;;;;;5119048;28;20031;-85
2023/12/03 09:50:02;;;;;;;34.07;14.27;;;;;;;;;;5127202;28;20292;-85
2023/12/03 09:52:28;;;;;;;39.80;14.63;;;;;;;;;;5111236;28;20019;-86
2023/12/03 09:54:58;;;;;;;27.25;11.90;;;;;;;;;;5114606;27;20015;-86
2023/12/03 09:57:24;;;;;;;32.67;12.90;;;;;;;;;;5108451;28;20081;-85
2023/12/03 09:59:51;;;;;;;32.37;13.77;;;;;;;;;;5121368;28;20032;-89
2023/12/03 10:02:20;;;;;;;32.47;13.23;;;;;;;;;;5123158;27;20023;-86
2023/12/03 10:04:45;;;;;;;31.40;13.38;;;;;;;;;;5116271;28;20027;-88
2023/12/03 10:07:11;;;;;;;34.70;12.93;;;;;;;;;;5126752;28;20030;-87
2023/12/03 10:09:37;;;;;;;29.30;11.57;;;;;;;;;;5124123;27;20420;-86
2023/12/03 10:12:05;;;;;;;29.38;12.73;;;;;;;;;;5110832;28;20403;-86
2023/12/03 10:14:31;;;;;;;28.03;11.37;;;;;;;;;;5109473;28;20026;-85
2023/12/03 10:16:56;;;;;;;28.67;11.83;;;;;;;;;;5112207;28;20682;-83
2023/12/03 10:19:26;;;;;;;31.67;13.60;;;;;;;;;;5111112;27;20034;-84
2023/12/03 10:21:52;;;;;;;27.92;13.07;;;;;;;;;;5116356;27;20368;-84
2023/12/03 10:24:18;;;;;;;27.92;11.15;;;;;;;;;;5112933;28;20043;-84
2023/12/03 10:26:51;;;;;;;29.33;11.77;;;;;;;;;;5097345;28;20502;-83
2023/12/03 10:29:19;;;;;;;28.80;11.52;;;;;;;;;;5101130;27;20069;-86
2023/12/03 10:31:44;;;;;;;32.38;14.23;;;;;;;;;;5106401;27;20028;-85
2023/12/03 10:34:09;;;;;;;31.20;12.60;;;;;;;;;;5105511;28;20382;-84
2023/12/03 10:36:35;;;;;;;30.30;11.77;;;;;;;;;;5100190;28;20048;-84
2023/12/03 10:39:05;;;;;;;30.15;10.20;;;;;;;;;;5123192;27;20079;-84
2023/12/03 10:41:31;;;;;;;25.48;10.50;;;;;;;;;;5111184;28;20427;-84
2023/12/03 10:43:57;;;;;;;24.10;9.77;;;;;;;;;;5121653;27;20015;-84
2023/12/03 10:46:23;;;;;;;22.13;10.07;;;;;;;;;;5097458;27;20032;-86
2023/12/03 10:57:11;;;;;;;25.52;9.88;;;;;;;;;;5259039;22;20030;-85
2023/12/03 10:59:39;;;;;;;21.30;9.50;;;;;;;;;;5069922;28;20166;-85
2023/12/03 11:02:18;;;;;;;23.63;11.50;;;;;;;;;;5070896;28;20025;-85
2023/12/03 11:04:55;;;;;;;20.67;9.27;;;;;;;;;;5069784;28;20024;-85
2023/12/03 11:07:21;;;;;;;24.98;11.55;;;;;;;;;;5062910;28;20028;-85
2023/12/03 11:10:14;;;;;;;24.17;10.02;;;;;;;;;;5051405;28;20017;-85
2023/12/03 11:12:40;;;;;;;20.27;8.60;;;;;;;;;;5054570;28;20029;-85
2023/12/03 11:15:33;;;;;;;19.52;8.32;;;;;;;;;;5055311;28;20020;-85
2023/12/03 11:17:58;;;;;;;24.67;13.10;;;;;;;;;;5065708;28;20028;-85
2023/12/03 11:20:33;;;;;;;20.08;8.77;;;;;;;;;;5070799;28;20031;-85
2023/12/03 11:23:34;;;;;;;16.67;8.27;;;;;;;;;;5037268;28;20021;-87
2023/12/03 11:26:12;;;;;;;18.05;8.43;;;;;;;;;;5059800;28;20013;-86
2023/12/03 11:28:49;;;;;;;16.43;7.57;;;;;;;;;;5069866;28;22038;-87
2023/12/03 11:31:32;;;;;;;17.25;8.65;;;;;;;;;;5059702;28;20108;-89
2023/12/03 11:34:05;;;;;;;17.83;7.80;;;;;;;;;;5054402;28;20048;-88
2023/12/03 11:37:07;;;;;;;17.90;8.35;;;;;;;;;;5067293;28;20102;-91
2023/12/03 11:39:51;;;;;;;15.65;6.85;;;;;;;;;;5061993;28;20040;-91
2023/12/03 11:42:38;;;;;;;16.77;7.93;;;;;;;;;;5077480;28;20106;-92
2023/12/03 11:45:19;;;;;;;15.90;7.77;;;;;;;;;;5073110;28;20342;-91
2023/12/03 11:48:05;;;;;;;16.48;7.32;;;;;;;;;;5075660;28;20258;-92
2023/12/03 11:50:31;;;;;;;17.35;7.32;;;;;;;;;;5078791;28;20024;-91
2023/12/03 11:52:56;;;;;;;19.75;9.55;;;;;;;;;;5069967;28;20032;-91
2023/12/03 11:55:22;;;;;;;17.10;8.40;;;;;;;;;;5083422;28;20067;-92
2023/12/03 11:57:47;;;;;;;17.03;8.07;;;;;;;;;;5068864;28;20090;-91
2023/12/03 12:00:12;;;;;;;15.83;7.33;;;;;;;;;;5071516;28;20066;-91
2023/12/03 12:02:39;;;;;;;19.30;8.30;;;;;;;;;;5079339;28;20032;-92
2023/12/03 12:05:15;;;;;;;20.57;8.47;;;;;;;;;;5492256;22;20048;-92
2023/12/03 12:07:40;;;;;;;18.55;9.30;;;;;;;;;;5047755;28;20021;-92
2023/12/03 12:10:14;;;;;;;23.80;10.60;;;;;;;;;;5019951;28;20025;-92
2023/12/03 12:15:47;;;;;;;19.23;9.30;;;;;;;;;;4994307;28;20038;-91
2023/12/03 12:18:27;;;;;;;17.35;7.32;;;;;;;;;;5036098;28;20036;-91
2023/12/03 12:21:04;;;;;;;18.88;8.45;;;;;;;;;;5019516;28;20033;-91
2023/12/03 12:23:30;;;;;;;14.70;7.03;;;;;;;;;;5067444;28;20007;-92
2023/12/03 12:25:57;;;;;;;20.15;9.52;;;;;;;;;;5071967;28;20060;-91
2023/12/03 12:28:22;;;;;;;17.23;8.50;;;;;;;;;;5055633;28;20040;-92
2023/12/03 12:31:00;;;;;;;17.27;8.10;;;;;;;;;;5071439;28;20389;-92
2023/12/03 12:33:25;;;;;;;13.07;7.40;;;;;;;;;;5061089;28;20025;-91
2023/12/03 12:35:51;;;;;;;16.13;8.00;;;;;;;;;;5036645;28;20024;-91
2023/12/03 12:38:16;;;;;;;18.37;8.30;;;;;;;;;;5037045;28;20047;-92
2023/12/03 12:48:39;;;;;;;22.90;9.65;;;;;;;;;;6102446;22;20027;-92
2023/12/03 12:51:29;;;;;;;21.08;10.45;;;;;;;;;;5065647;28;20025;-92
2023/12/03 12:53:55;;;;;;;23.83;11.77;;;;;;;;;;5056348;28;20075;-91
2023/12/03 12:56:32;;;;;;;18.53;8.77;;;;;;;;;;5065077;28;20016;-92
2023/12/03 12:59:00;;;;;;;21.30;8.93;;;;;;;;;;5049662;28;20029;-92
2023/12/03 13:01:44;;;;;;;23.75;11.82;;;;;;;;;;5042523;28;20351;-91
2023/12/03 13:04:36;;;;;;;22.48;11.20;;;;;;;;;;5056784;28;20033;-92
2023/12/03 13:07:02;;;;;;;21.55;10.40;;;;;;;;;;5068469;28;20025;-91
2023/12/03 13:23:22;;;;;;;25.73;11.57;;;;;;;;;;6061421;22;20049;-93
2023/12/03 13:25:47;;;;;;;23.17;9.93;;;;;;;;;;5076927;28;20263;-93
2023/12/03 13:40:03;;;;;;;21.85;9.50;;;;;;;;;;5580996;22;20062;-93
2023/12/03 13:42:28;;;;;;;26.45;13.20;;;;;;;;;;5080468;28;20039;-91
2023/12/03 13:44:56;;;;;;;25.53;10.73;;;;;;;;;;5093054;28;20008;-92
2023/12/03 13:47:21;;;;;;;25.70;9.95;;;;;;;;;;5092832;28;20295;-91
2023/12/03 13:49:46;;;;;;;21.03;10.20;;;;;;;;;;5059627;28;20019;-92
2023/12/03 13:52:12;;;;;;;24.27;9.50;;;;;;;;;;5057169;28;20024;-93
2023/12/03 13:54:37;;;;;;;22.73;9.53;;;;;;;;;;5052146;28;20024;-93
2023/12/03 13:57:02;;;;;;;21.63;9.77;;;;;;;;;;5068760;28;20026;-91
2023/12/03 13:59:27;;;;;;;22.43;10.17;;;;;;;;;;5074338;28;20321;-90
2023/12/03 14:01:53;;;;;;;25.27;12.07;;;;;;;;;;5068531;28;20403;-92
2023/12/03 14:04:18;;;;;;;25.27;10.77;;;;;;;;;;5038704;28;20033;-90
2023/12/03 14:06:44;;;;;;;23.80;9.60;;;;;;;;;;5064983;28;20273;-91
2023/12/03 14:09:13;;;;;;;22.23;10.50;;;;;;;;;;5058514;28;20037;-87
2023/12/03 14:11:40;;;;;;;21.35;9.55;;;;;;;;;;5029704;28;20370;-87
2023/12/03 14:14:05;;;;;;;22.87;9.60;;;;;;;;;;5048058;28;20112;-89
2023/12/03 14:16:30;;;;;;;27.30;9.93;;;;;;;;;;5049454;28;20051;-88
2023/12/03 14:18:55;;;;;;;22.43;9.77;;;;;;;;;;5046497;28;20388;-86
2023/12/03 14:21:21;;;;;;;25.43;11.30;;;;;;;;;;5048905;28;20501;-88
2023/12/03 14:23:46;;;;;;;23.70;9.93;;;;;;;;;;5033422;28;20057;-88
2023/12/03 14:26:11;;;;;;;22.50;9.20;;;;;;;;;;5053708;28;20025;-88
2023/12/03 14:28:38;;;;;;;20.53;9.47;;;;;;;;;;5050913;28;20013;-88
2023/12/03 14:31:03;;;;;;;28.40;12.07;;;;;;;;;;5033774;28;20398;-88
2023/12/03 14:33:29;;;;;;;28.23;11.38;;;;;;;;;;5031064;28;20023;-88
2023/12/03 14:35:54;;;;;;;21.50;9.40;;;;;;;;;;5052609;28;20024;-88
2023/12/03 14:38:19;;;;;;;23.83;11.17;;;;;;;;;;5055573;28;20056;-89
2023/12/03 14:40:44;;;;;;;27.57;10.43;;;;;;;;;;5056559;28;20028;-88
2023/12/03 14:43:09;;;;;;;25.50;9.33;;;;;;;;;;5034602;28;20025;-88
2023/12/03 14:45:36;;;;;;;28.87;12.30;;;;;;;;;;5027464;28;20028;-88
2023/12/03 14:48:01;;;;;;;21.85;9.85;;;;;;;;;;5053367;28;20029;-89
2023/12/03 14:50:26;;;;;;;26.33;12.57;;;;;;;;;;5052566;28;20091;-88
2023/12/03 14:52:52;;;;;;;25.57;10.53;;;;;;;;;;5052765;28;20419;-88
2023/12/03 14:55:18;;;;;;;23.47;9.67;;;;;;;;;;5037672;28;20022;-88
2023/12/03 14:57:45;;;;;;;21.98;10.30;;;;;;;;;;5045546;28;20079;-88
2023/12/03 15:00:11;;;;;;;24.60;10.45;;;;;;;;;;5052997;28;20025;-88
2023/12/03 15:02:36;;;;;;;22.25;9.32;;;;;;;;;;5033366;28;20036;-87
2023/12/03 15:05:03;;;;;;;22.77;9.87;;;;;;;;;;5053144;28;20028;-88
2023/12/03 15:07:30;;;;;;;23.37;10.00;;;;;;;;;;5051414;28;20017;-87
2023/12/03 15:09:56;;;;;;;22.83;11.47;;;;;;;;;;5036383;28;20279;-87
2023/12/03 15:12:21;;;;;;;21.33;9.68;;;;;;;;;;5054568;28;20477;-88
2023/12/03 15:14:46;;;;;;;22.53;10.20;;;;;;;;;;5054860;28;20020;-88
2023/12/03 15:17:12;;;;;;;23.50;10.00;;;;;;;;;;5054292;28;20009;-88
2023/12/03 15:19:38;;;;;;;23.07;11.47;;;;;;;;;;5052205;28;20303;-85
2023/12/03 15:22:03;;;;;;;22.02;10.00;;;;;;;;;;5052364;28;20471;-84
2023/12/03 15:24:28;;;;;;;24.87;12.27;;;;;;;;;;5032287;28;20117;-85
2023/12/03 15:26:54;;;;;;;25.10;13.17;;;;;;;;;;5049642;28;20373;-84
2023/12/03 15:29:19;;;;;;;20.90;9.40;;;;;;;;;;5050975;28;20028;-88
2023/12/03 15:31:44;;;;;;;31.60;10.23;;;;;;;;;;5033491;28;20057;-86
2023/12/03 15:34:09;;;;;;;20.10;9.87;;;;;;;;;;5045521;28;20026;-87
2023/12/03 15:36:37;;;;;;;25.13;11.20;;;;;;;;;;5044490;28;20559;-84
2023/12/03 15:39:02;;;;;;;25.75;11.52;;;;;;;;;;5044261;28;20497;-89
2023/12/03 15:41:27;;;;;;;24.40;9.43;;;;;;;;;;5040712;28;20040;-89
2023/12/03 15:43:53;;;;;;;20.37;10.40;;;;;;;;;;5056323;28;20025;-86